TNCC/CUR METAR and TAF weather

Enter ICAO airport designator
Station Type Date Time Source
TNCC METAR 2019/12/13 17:00 UTC NOAA

TNCC 131700Z 10009KT 9999 -SHRA FEW016TCU SCT022 28/23 Q1010 NOSIG=


Station Type Date Time Source
TNCC Decoded METAR 2019/12/13 17:00 UTC NOAA

Hato Airport, Curacao, Netherlands Antilles (TNCC) 12-12N 068-58W 67M
Dec 13, 2019 - 12:00 PM EST / 2019.12.13 1700 UTC
Wind: from the E (100 degrees) at 10 MPH (9 KT):0
Visibility: greater than 7 mile(s):0
Sky conditions: partly cloudy
Weather: light rain showers; Towering cumulus clouds observed
Temperature: 82 F (28 C)
Dew Point: 73 F (23 C)
Relative Humidity: 74%
Pressure (altimeter): 29.83 in. Hg (1010 hPa)
ob: TNCC 131700Z 10009KT 9999 -SHRA FEW016TCU SCT022 28/23 Q1010 NOSIG=
cycle: 17

Station Type Date Time Source
TNCC TAF 2019/12/13 12:25 UTC NOAA

TAF TNCC 131115Z 1312/1412 08008KT 9999 SCT018
TEMPO 1312/1318 5000 SHRA BKN014

Example: see airport list